Whitewright, Texas
Current Conditions -  °F | °C
As of 5:15 AM on Monday 22 Dec 2014 (Local Time) from KGYI Reporting Station
Scattered Clouds Scattered Clouds  
Wind Chill: 51°   Ceiling: Unl
Heat Index: 51°   Visibility: 10mi
Dew Point: 49°   Wind: 13mph
Humidity: 91%   Direction: 170°S
Pressure: 29.59"   Gusts: NA
Location:  33.51°N, 96.39°W
Report Text: KGYI 221115Z AUTO 17011KT 10SM SCT023 11/09 A2959 RMK AO2 T01070093
Loading
Personal Weather Stations






























Interactive Weather Map New forecast layout! Learn more

10-Day Weather Forecast

Advertisements
Track Severe Weather on mobile